createdAt,value
2018-01-19T00:01:10.044Z,1.40
2018-01-19T00:03:37.538Z,1.30
2018-01-19T00:06:05.023Z,1.30
2018-01-19T00:08:32.496Z,1.30
2018-01-19T00:10:59.990Z,1.30
2018-01-19T00:13:27.565Z,1.40
2018-01-19T00:15:55.036Z,1.30
2018-01-19T00:18:22.502Z,1.30
2018-01-19T00:20:50.002Z,1.30
2018-01-19T00:23:18.386Z,1.30
2018-01-19T00:25:45.878Z,1.30
2018-01-19T00:28:13.342Z,1.30
2018-01-19T00:30:40.803Z,1.40
2018-01-19T00:33:08.305Z,1.30
2018-01-19T00:35:35.885Z,1.30
2018-01-19T00:38:03.355Z,1.30
2018-01-19T00:40:30.834Z,1.30
2018-01-19T00:42:58.298Z,1.30
2018-01-19T00:45:26.573Z,1.30
2018-01-19T00:47:54.026Z,1.30
2018-01-19T00:50:21.529Z,1.30
2018-01-19T00:52:49.006Z,1.30
2018-01-19T00:55:16.478Z,1.30
2018-01-19T00:57:44.007Z,1.30
2018-01-19T01:00:12.248Z,1.30
2018-01-19T01:02:39.737Z,1.30
2018-01-19T01:05:07.206Z,1.30
2018-01-19T01:07:34.667Z,1.30
2018-01-19T01:10:02.158Z,1.30
2018-01-19T01:12:30.415Z,1.30
2018-01-19T01:14:57.903Z,1.30
2018-01-19T01:17:25.387Z,1.30
2018-01-19T01:19:52.874Z,1.30
2018-01-19T01:22:20.362Z,1.30
2018-01-19T01:24:47.830Z,1.30
2018-01-19T01:27:15.318Z,1.30
2018-01-19T01:29:42.802Z,1.30
2018-01-19T01:32:10.288Z,1.30
2018-01-19T01:34:37.790Z,1.30
2018-01-19T01:37:05.298Z,1.30
2018-01-19T01:39:33.528Z,1.30
2018-01-19T01:42:01.026Z,1.30
2018-01-19T01:44:28.489Z,1.30
2018-01-19T01:46:55.954Z,1.30
2018-01-19T01:49:24.222Z,1.30
2018-01-19T01:51:51.689Z,1.30
2018-01-19T01:54:19.153Z,1.30
2018-01-19T01:56:46.638Z,1.30
2018-01-19T01:59:14.107Z,1.30
2018-01-19T02:01:41.613Z,1.30
2018-01-19T02:04:09.107Z,1.30
2018-01-19T02:06:36.573Z,1.30
2018-01-19T02:09:04.087Z,1.20
2018-01-19T02:11:32.342Z,1.20
2018-01-19T02:13:59.797Z,1.20
2018-01-19T02:16:27.294Z,1.20
2018-01-19T02:18:54.763Z,1.20
2018-01-19T02:21:22.260Z,1.20
2018-01-19T02:23:49.721Z,1.20
2018-01-19T02:26:17.223Z,1.20
2018-01-19T02:28:44.691Z,1.20
2018-01-19T02:31:12.162Z,1.20
2018-01-19T02:33:39.657Z,1.20
2018-01-19T02:36:07.130Z,1.20
2018-01-19T02:38:35.391Z,1.20
2018-01-19T02:41:02.851Z,1.20
2018-01-19T02:43:31.075Z,1.20
2018-01-19T02:45:58.579Z,1.20
2018-01-19T02:48:26.039Z,1.20
2018-01-19T02:50:53.523Z,1.20
2018-01-19T02:53:20.989Z,1.20
2018-01-19T02:55:48.476Z,1.20
2018-01-19T02:58:15.945Z,1.20
2018-01-19T03:00:44.199Z,1.20
2018-01-19T03:03:11.687Z,1.20
2018-01-19T03:05:39.158Z,1.20
2018-01-19T03:08:06.662Z,1.20
2018-01-19T03:10:34.147Z,1.30
2018-01-19T03:13:02.390Z,1.30
2018-01-19T03:15:29.851Z,1.20
2018-01-19T03:17:57.374Z,1.30
2018-01-19T03:20:24.874Z,1.20
2018-01-19T03:22:53.075Z,1.30
2018-01-19T03:25:20.582Z,1.30
2018-01-19T03:27:48.051Z,1.20
2018-01-19T03:30:16.283Z,1.30
2018-01-19T03:32:43.779Z,1.20
2018-01-19T03:35:11.267Z,1.30
2018-01-19T03:37:38.770Z,1.30
2018-01-19T03:40:06.239Z,1.30
2018-01-19T03:42:33.706Z,1.30
2018-01-19T03:45:01.190Z,1.30
2018-01-19T03:47:28.692Z,1.30
2018-01-19T03:49:56.172Z,1.30
2018-01-19T03:52:23.642Z,1.30
2018-01-19T03:54:51.131Z,1.30
2018-01-19T03:57:18.594Z,1.30
2018-01-19T03:59:46.099Z,1.30
2018-01-19T04:02:13.583Z,1.30
2018-01-19T04:04:41.055Z,1.30
2018-01-19T04:07:08.710Z,1.30
2018-01-19T04:09:36.185Z,1.30
2018-01-19T04:12:03.685Z,1.30
2018-01-19T04:14:31.155Z,1.20
2018-01-19T04:16:59.383Z,1.30
2018-01-19T04:19:27.635Z,1.20
2018-01-19T04:21:55.127Z,1.20
2018-01-19T04:24:22.611Z,1.20
2018-01-19T04:26:50.096Z,1.20
2018-01-19T04:29:17.590Z,1.20
2018-01-19T04:31:45.094Z,1.20
2018-01-19T04:34:13.323Z,1.20
2018-01-19T04:36:40.796Z,1.20
2018-01-19T04:39:08.299Z,1.20
2018-01-19T04:41:35.766Z,1.20
2018-01-19T04:44:03.239Z,1.20
2018-01-19T04:46:30.723Z,1.20
2018-01-19T04:48:58.184Z,1.20
2018-01-19T04:51:25.695Z,1.20
2018-01-19T04:53:53.168Z,1.20
2018-01-19T04:56:20.652Z,1.20
2018-01-19T04:58:48.147Z,1.20
2018-01-19T05:01:15.651Z,1.20
2018-01-19T05:03:43.122Z,1.20
2018-01-19T05:06:10.670Z,1.20
2018-01-19T05:08:38.119Z,1.20
2018-01-19T05:11:05.607Z,1.20
2018-01-19T05:13:33.872Z,1.20
2018-01-19T05:16:01.369Z,1.20
2018-01-19T05:18:29.607Z,1.20
2018-01-19T05:20:57.094Z,1.20
2018-01-19T05:23:24.582Z,1.20
2018-01-19T05:25:52.067Z,1.30
2018-01-19T05:28:19.560Z,1.30
2018-01-19T05:30:47.047Z,1.30
2018-01-19T05:33:14.547Z,1.30
2018-01-19T05:35:42.791Z,1.30
2018-01-19T05:38:10.298Z,1.20
2018-01-19T05:40:37.778Z,1.20
2018-01-19T05:43:05.243Z,1.30
2018-01-19T05:45:32.736Z,1.30
2018-01-19T05:48:00.252Z,1.30
2018-01-19T05:50:28.507Z,1.20
2018-01-19T05:52:55.987Z,1.30
2018-01-19T05:55:23.475Z,1.30
2018-01-19T05:57:50.963Z,1.20
2018-01-19T06:00:18.428Z,1.20
2018-01-19T06:02:45.923Z,1.20
2018-01-19T06:05:13.389Z,1.20
2018-01-19T06:07:40.875Z,1.20
2018-01-19T06:10:08.378Z,1.10
2018-01-19T06:12:35.842Z,1.10
2018-01-19T06:15:03.311Z,1.10
2018-01-19T06:17:30.810Z,1.00
2018-01-19T06:19:58.276Z,1.00
2018-01-19T06:22:25.767Z,1.00
2018-01-19T06:24:53.263Z,0.90
2018-01-19T06:27:21.500Z,0.90
2018-01-19T06:29:48.979Z,0.90
2018-01-19T06:32:16.444Z,0.80
2018-01-19T06:34:43.937Z,0.80
2018-01-19T06:37:11.399Z,0.80
2018-01-19T06:39:38.911Z,0.90
2018-01-19T06:42:06.378Z,0.90
2018-01-19T06:44:34.683Z,0.90
2018-01-19T06:47:02.170Z,0.90
2018-01-19T06:49:29.670Z,0.90
2018-01-19T06:52:05.199Z,0.90
2018-01-19T06:54:33.088Z,0.80
2018-01-19T06:57:00.560Z,0.80
2018-01-19T06:59:28.092Z,0.80
2018-01-19T07:01:55.650Z,0.80
2018-01-19T07:04:23.155Z,0.80
2018-01-19T07:06:50.842Z,0.80
2018-01-19T07:09:19.102Z,0.80
2018-01-19T07:11:46.568Z,0.80
2018-01-19T07:14:14.160Z,0.80
2018-01-19T07:16:41.655Z,0.80
2018-01-19T07:19:09.148Z,0.80
2018-01-19T07:21:37.431Z,0.70
2018-01-19T07:24:05.068Z,0.70
2018-01-19T07:26:32.534Z,0.80
2018-01-19T07:29:00.799Z,0.70
2018-01-19T07:31:28.287Z,0.70
2018-01-19T07:33:55.790Z,0.80
2018-01-19T07:36:23.294Z,0.80
2018-01-19T07:38:51.524Z,0.90
2018-01-19T07:41:19.019Z,0.80
2018-01-19T07:43:46.512Z,0.90
2018-01-19T07:46:14.009Z,0.90
2018-01-19T07:48:41.473Z,0.90
2018-01-19T07:51:09.001Z,0.90
2018-01-19T07:53:36.587Z,0.90
2018-01-19T07:56:04.083Z,0.90
2018-01-19T07:58:31.603Z,0.90
2018-01-19T08:01:00.050Z,0.90
2018-01-19T08:03:28.181Z,0.90
2018-01-19T08:05:56.249Z,0.80
2018-01-19T08:08:23.787Z,0.80
2018-01-19T08:10:52.284Z,0.80
2018-01-19T08:13:19.791Z,0.80
2018-01-19T08:15:48.024Z,0.80
2018-01-19T08:18:15.524Z,0.80
2018-01-19T08:20:43.028Z,0.80
2018-01-19T08:23:10.534Z,0.80
2018-01-19T08:25:38.182Z,0.80
2018-01-19T08:28:06.543Z,0.80
2018-01-19T08:30:34.309Z,0.80
2018-01-19T08:33:01.791Z,0.80
2018-01-19T08:35:29.266Z,0.90
2018-01-19T08:37:56.763Z,0.90
2018-01-19T08:40:24.642Z,0.90
2018-01-19T08:42:52.268Z,1.00
2018-01-19T08:45:20.193Z,1.10
2018-01-19T08:47:47.739Z,1.10
2018-01-19T08:50:15.441Z,1.20
2018-01-19T08:52:42.973Z,1.20
2018-01-19T08:55:10.813Z,1.20
2018-01-19T08:57:38.348Z,1.20
2018-01-19T09:00:05.862Z,1.20
2018-01-19T09:02:33.339Z,1.20
2018-01-19T09:05:00.846Z,1.20
2018-01-19T09:07:29.168Z,1.30
2018-01-19T09:09:57.444Z,1.30
2018-01-19T09:12:24.940Z,1.30
2018-01-19T09:14:53.216Z,1.40
2018-01-19T09:17:20.693Z,1.30
2018-01-19T09:19:48.170Z,1.40
2018-01-19T09:22:15.690Z,1.40
2018-01-19T09:24:43.247Z,1.50
2018-01-19T09:27:10.833Z,1.50
2018-01-19T09:29:39.107Z,1.50
2018-01-19T09:32:06.608Z,1.50
2018-01-19T09:34:34.120Z,1.50
2018-01-19T09:37:01.637Z,1.50
2018-01-19T09:39:29.196Z,1.50
2018-01-19T09:41:57.227Z,1.60
2018-01-19T09:44:25.072Z,1.60
2018-01-19T09:46:52.764Z,1.60
2018-01-19T09:49:20.934Z,1.60
2018-01-19T09:51:49.215Z,1.70
2018-01-19T09:54:18.014Z,1.70
2018-01-19T09:56:46.111Z,1.60
2018-01-19T09:59:13.696Z,1.70
2018-01-19T10:01:42.142Z,1.70
2018-01-19T10:04:10.009Z,1.70
2018-01-19T10:06:38.310Z,1.70
2018-01-19T10:09:05.967Z,1.70
2018-01-19T10:11:33.574Z,1.80
2018-01-19T10:14:01.096Z,1.80
2018-01-19T10:16:28.874Z,1.90
2018-01-19T10:18:57.798Z,1.90
2018-01-19T10:21:26.041Z,1.90
2018-01-19T10:23:54.481Z,1.90
2018-01-19T10:26:22.140Z,1.90
2018-01-19T10:28:50.151Z,1.90
2018-01-19T10:31:19.013Z,1.80
2018-01-19T10:33:47.073Z,1.80
2018-01-19T10:36:15.279Z,1.80
2018-01-19T10:38:43.238Z,1.80
2018-01-19T10:41:11.034Z,1.80
2018-01-19T10:43:39.355Z,1.80
2018-01-19T10:46:07.325Z,1.80
2018-01-19T10:48:35.108Z,1.90
2018-01-19T10:51:02.794Z,1.90
2018-01-19T10:53:30.791Z,1.90
2018-01-19T10:55:59.340Z,1.90
2018-01-19T10:58:27.421Z,1.90
2018-01-19T11:00:55.811Z,2.00
2018-01-19T11:03:24.102Z,1.90
2018-01-19T11:05:52.585Z,2.00
2018-01-19T11:08:20.931Z,2.00
2018-01-19T11:10:49.226Z,2.00
2018-01-19T11:13:18.336Z,2.00
2018-01-19T11:15:46.196Z,1.90
2018-01-19T11:18:13.815Z,1.90
2018-01-19T11:20:42.361Z,1.90
2018-01-19T11:23:10.505Z,1.90
2018-01-19T11:25:39.494Z,1.80
2018-01-19T11:28:07.806Z,1.90
2018-01-19T11:30:35.811Z,1.80
2018-01-19T11:33:03.923Z,1.80
2018-01-19T11:35:31.432Z,1.80
2018-01-19T11:37:58.934Z,1.80
2018-01-19T11:40:26.480Z,1.80
2018-01-19T11:42:54.255Z,1.80
2018-01-19T11:45:21.890Z,1.80
2018-01-19T11:47:49.630Z,1.80
2018-01-19T11:50:17.278Z,1.70
2018-01-19T11:52:45.354Z,1.70
2018-01-19T11:55:13.643Z,1.70
2018-01-19T11:57:41.194Z,1.70
2018-01-19T12:00:08.699Z,1.70
2018-01-19T12:02:36.267Z,1.70
2018-01-19T12:05:03.801Z,1.70
2018-01-19T12:07:31.303Z,1.70
2018-01-19T12:09:58.810Z,1.70
2018-01-19T12:12:26.312Z,1.70
2018-01-19T12:14:54.118Z,1.70
2018-01-19T12:17:22.495Z,1.80
2018-01-19T12:19:50.247Z,1.80
2018-01-19T12:22:18.487Z,1.80
2018-01-19T12:24:45.979Z,1.80
2018-01-19T12:27:13.455Z,1.80
2018-01-19T12:29:40.973Z,1.80
2018-01-19T12:32:08.451Z,1.80
2018-01-19T12:34:36.782Z,1.80
2018-01-19T12:37:04.322Z,1.80
2018-01-19T12:39:33.253Z,1.90
2018-01-19T12:42:00.944Z,1.80
2018-01-19T12:44:29.174Z,1.90
2018-01-19T12:46:56.678Z,1.90
2018-01-19T12:49:24.179Z,1.90
2018-01-19T12:51:52.614Z,1.90
2018-01-19T12:54:20.118Z,1.90
2018-01-19T12:56:47.618Z,1.90
2018-01-19T12:59:15.143Z,1.90
2018-01-19T13:01:43.528Z,2.00
2018-01-19T13:04:11.156Z,1.90
2018-01-19T13:06:38.812Z,2.00
2018-01-19T13:09:06.417Z,2.00
2018-01-19T13:11:34.017Z,2.00
2018-01-19T13:14:01.492Z,2.00
2018-01-19T13:16:29.103Z,2.00
2018-01-19T13:18:56.675Z,2.00
2018-01-19T13:21:24.380Z,2.10
2018-01-19T13:23:53.514Z,2.00
2018-01-19T13:26:21.967Z,2.10
2018-01-19T13:28:51.019Z,2.10
2018-01-19T13:31:19.463Z,2.10
2018-01-19T13:33:47.593Z,2.10
2018-01-19T13:36:15.991Z,2.20
2018-01-19T13:38:44.368Z,2.20
2018-01-19T13:41:12.716Z,2.20
2018-01-19T13:43:40.964Z,2.10
2018-01-19T13:46:09.030Z,2.10
2018-01-19T13:48:37.108Z,2.10
2018-01-19T13:51:05.336Z,2.10
2018-01-19T13:53:33.612Z,2.10
2018-01-19T13:56:02.831Z,2.10
2018-01-19T13:58:31.179Z,2.10
2018-01-19T14:00:59.508Z,2.10
2018-01-19T14:03:27.822Z,2.10
2018-01-19T14:05:56.252Z,2.10
2018-01-19T14:08:25.403Z,2.10
2018-01-19T14:10:54.457Z,2.20
2018-01-19T14:13:22.796Z,2.20
2018-01-19T14:15:51.132Z,2.20
2018-01-19T14:18:19.332Z,2.20
2018-01-19T14:20:47.251Z,2.20
2018-01-19T14:23:15.156Z,2.20
2018-01-19T14:25:43.451Z,2.20
2018-01-19T14:28:11.589Z,2.20
2018-01-19T14:30:39.799Z,2.20
2018-01-19T14:33:07.984Z,2.20
2018-01-19T14:35:36.178Z,2.20
2018-01-19T14:38:04.137Z,2.20
2018-01-19T14:40:31.806Z,2.20
2018-01-19T14:43:00.122Z,2.20
2018-01-19T14:45:27.677Z,2.20
2018-01-19T14:47:57.331Z,2.20
2018-01-19T14:50:25.050Z,2.20
2018-01-19T14:52:53.429Z,2.30
2018-01-19T14:55:21.829Z,2.30
2018-01-19T14:57:49.456Z,2.30
2018-01-19T15:00:17.132Z,2.30
2018-01-19T15:02:45.492Z,2.30
2018-01-19T15:05:13.085Z,2.30
2018-01-19T15:07:40.680Z,2.30
2018-01-19T15:10:08.193Z,2.30
2018-01-19T15:12:36.163Z,2.30
2018-01-19T15:15:04.110Z,2.30
2018-01-19T15:17:32.110Z,2.30
2018-01-19T15:19:59.904Z,2.30
2018-01-19T15:22:28.235Z,2.30
2018-01-19T15:24:56.453Z,2.40
2018-01-19T15:27:24.054Z,2.40
2018-01-19T15:29:52.232Z,2.40
2018-01-19T15:32:19.759Z,2.40
2018-01-19T15:34:47.600Z,2.40
2018-01-19T15:37:15.140Z,2.40
2018-01-19T15:39:42.982Z,2.40
2018-01-19T15:42:11.235Z,2.40
2018-01-19T15:44:38.987Z,2.40
2018-01-19T15:47:06.496Z,2.40
2018-01-19T15:49:33.966Z,2.40
2018-01-19T15:52:01.460Z,2.40
2018-01-19T15:54:29.066Z,2.40
2018-01-19T15:56:56.656Z,2.40
2018-01-19T15:59:24.989Z,2.40
2018-01-19T16:01:52.495Z,2.40
2018-01-19T16:04:20.093Z,2.40
2018-01-19T16:06:47.754Z,2.40
2018-01-19T16:09:15.317Z,2.40
2018-01-19T16:11:42.878Z,2.50
2018-01-19T16:14:11.692Z,2.50
2018-01-19T16:16:39.377Z,2.40
2018-01-19T16:19:06.900Z,2.40
2018-01-19T16:21:34.480Z,2.40
2018-01-19T16:24:01.959Z,2.50
2018-01-19T16:26:29.449Z,2.50
2018-01-19T16:28:56.928Z,2.50
2018-01-19T16:31:25.376Z,2.40
2018-01-19T16:33:52.954Z,2.40
2018-01-19T16:36:21.425Z,2.40
2018-01-19T16:38:48.905Z,2.40
2018-01-19T16:41:16.380Z,2.40
2018-01-19T16:43:43.923Z,2.50
2018-01-19T16:46:11.451Z,2.40
2018-01-19T16:48:39.729Z,2.40
2018-01-19T16:51:07.415Z,2.40
2018-01-19T16:53:34.933Z,2.40
2018-01-19T16:56:02.443Z,2.40
2018-01-19T16:58:29.950Z,2.40
2018-01-19T17:00:57.677Z,2.50
2018-01-19T17:03:25.171Z,2.50
2018-01-19T17:05:53.442Z,2.50
2018-01-19T17:08:20.916Z,2.50
2018-01-19T17:10:48.415Z,2.50
2018-01-19T17:13:15.887Z,2.50
2018-01-19T17:15:43.357Z,2.60
2018-01-19T17:18:10.884Z,2.60
2018-01-19T17:20:39.159Z,2.60
2018-01-19T17:23:06.619Z,2.50
2018-01-19T17:25:34.112Z,2.60
2018-01-19T17:28:01.597Z,2.60
2018-01-19T17:30:29.079Z,2.60
2018-01-19T17:32:56.558Z,2.50
2018-01-19T17:35:24.056Z,2.50
2018-01-19T17:37:52.385Z,2.40
2018-01-19T17:40:19.877Z,2.40
2018-01-19T17:42:47.398Z,2.50
2018-01-19T17:45:14.881Z,2.40
2018-01-19T17:47:42.359Z,2.40
2018-01-19T17:50:11.518Z,2.40
2018-01-19T17:52:39.105Z,2.30
2018-01-19T17:55:06.597Z,2.40
2018-01-19T17:57:34.047Z,2.40
2018-01-19T18:00:02.295Z,2.40
2018-01-19T18:02:29.788Z,2.30
2018-01-19T18:04:57.260Z,2.40
2018-01-19T18:07:24.738Z,2.40
2018-01-19T18:09:52.425Z,2.40
2018-01-19T18:12:19.979Z,2.40
2018-01-19T18:14:47.613Z,2.40
2018-01-19T18:17:15.544Z,2.40
2018-01-19T18:19:43.512Z,2.40
2018-01-19T18:22:11.653Z,2.40
2018-01-19T18:24:39.519Z,2.50
2018-01-19T18:27:07.664Z,2.50
2018-01-19T18:29:36.241Z,2.50
2018-01-19T18:32:03.934Z,2.50
2018-01-19T18:34:31.500Z,2.50
2018-01-19T18:36:59.483Z,2.50
2018-01-19T18:39:28.090Z,2.50
2018-01-19T18:41:55.712Z,2.50
2018-01-19T18:44:23.286Z,2.50
2018-01-19T18:46:50.971Z,2.50
2018-01-19T18:49:18.685Z,2.50
2018-01-19T18:51:46.214Z,2.50
2018-01-19T18:54:13.707Z,2.50
2018-01-19T18:56:41.949Z,2.50
2018-01-19T18:59:10.207Z,2.50
2018-01-19T19:01:37.729Z,2.50
2018-01-19T19:04:06.107Z,2.50
2018-01-19T19:06:34.471Z,2.50
2018-01-19T19:09:02.254Z,2.50
2018-01-19T19:11:30.021Z,2.50
2018-01-19T19:13:57.543Z,2.50
2018-01-19T19:16:25.081Z,2.50
2018-01-19T19:18:52.580Z,2.50
2018-01-19T19:21:20.467Z,2.50
2018-01-19T19:23:48.040Z,2.50
2018-01-19T19:26:16.295Z,2.50
2018-01-19T19:28:43.882Z,2.40
2018-01-19T19:31:12.239Z,2.40
2018-01-19T19:33:39.763Z,2.40
2018-01-19T19:36:07.281Z,2.40
2018-01-19T19:38:34.780Z,2.40
2018-01-19T19:41:02.304Z,2.30
2018-01-19T19:43:30.084Z,2.30
2018-01-19T19:45:58.654Z,2.30
2018-01-19T19:48:27.327Z,2.30
2018-01-19T19:50:54.923Z,2.30
2018-01-19T19:53:22.407Z,2.30
2018-01-19T19:55:49.981Z,2.30
2018-01-19T19:58:17.486Z,2.30
2018-01-19T20:00:45.129Z,2.30
2018-01-19T20:03:13.781Z,2.30
2018-01-19T20:05:41.610Z,2.30
2018-01-19T20:08:10.604Z,2.30
2018-01-19T20:10:39.360Z,2.30
2018-01-19T20:13:07.142Z,2.30
2018-01-19T20:15:35.464Z,2.30
2018-01-19T20:18:04.519Z,2.40
2018-01-19T20:20:32.242Z,2.30
2018-01-19T20:22:59.764Z,2.30
2018-01-19T20:25:27.593Z,2.30
2018-01-19T20:27:55.534Z,2.30
2018-01-19T20:30:23.791Z,2.30
2018-01-19T20:32:52.108Z,2.30
2018-01-19T20:35:20.349Z,2.30
2018-01-19T20:37:49.257Z,2.20
2018-01-19T20:40:17.959Z,2.20
2018-01-19T20:42:47.182Z,2.20
2018-01-19T20:45:15.271Z,2.20
2018-01-19T20:47:43.922Z,2.20
2018-01-19T20:50:12.268Z,2.20
2018-01-19T20:52:41.355Z,2.10
2018-01-19T20:55:09.893Z,2.10
2018-01-19T20:57:38.906Z,2.00
2018-01-19T21:00:07.236Z,2.00
2018-01-19T21:02:35.379Z,2.00
2018-01-19T21:05:03.348Z,2.00
2018-01-19T21:07:31.649Z,2.00
2018-01-19T21:09:59.882Z,2.00
2018-01-19T21:12:27.760Z,2.00
2018-01-19T21:14:56.018Z,2.00
2018-01-19T21:17:23.589Z,1.90
2018-01-19T21:19:51.416Z,1.90
2018-01-19T21:22:19.265Z,1.90
2018-01-19T21:24:47.454Z,1.80
2018-01-19T21:27:15.857Z,1.80
2018-01-19T21:29:43.972Z,1.80
2018-01-19T21:32:11.967Z,1.70
2018-01-19T21:34:40.209Z,1.70
2018-01-19T21:37:08.956Z,1.70
2018-01-19T21:39:36.501Z,1.70
2018-01-19T21:42:04.172Z,1.60
2018-01-19T21:44:31.730Z,1.60
2018-01-19T21:46:59.212Z,1.60
2018-01-19T21:49:26.901Z,1.60
2018-01-19T21:51:54.533Z,1.60
2018-01-19T21:54:22.042Z,1.50
2018-01-19T21:56:50.521Z,1.60
2018-01-19T21:59:18.026Z,1.60
2018-01-19T22:01:46.498Z,1.60
2018-01-19T22:04:14.832Z,1.60
2018-01-19T22:06:42.617Z,1.60
2018-01-19T22:09:10.791Z,1.60
2018-01-19T22:11:38.776Z,1.70
2018-01-19T22:14:06.636Z,1.60
2018-01-19T22:16:34.195Z,1.60
2018-01-19T22:19:01.905Z,1.60
2018-01-19T22:21:29.404Z,1.60
2018-01-19T22:23:56.889Z,1.60
2018-01-19T22:26:24.424Z,1.70
2018-01-19T22:28:52.113Z,1.60
2018-01-19T22:31:19.688Z,1.60
2018-01-19T22:33:47.151Z,1.60
2018-01-19T22:36:15.524Z,1.70
2018-01-19T22:38:43.179Z,1.70
2018-01-19T22:41:11.566Z,1.70
2018-01-19T22:43:39.042Z,1.70
2018-01-19T22:46:06.537Z,1.70
2018-01-19T22:48:34.044Z,1.70
2018-01-19T22:51:01.516Z,1.70
2018-01-19T22:53:28.999Z,1.60
2018-01-19T22:55:56.500Z,1.60
2018-01-19T22:58:24.051Z,1.60
2018-01-19T23:00:51.563Z,1.60
2018-01-19T23:03:19.032Z,1.60
2018-01-19T23:05:46.593Z,1.50
2018-01-19T23:08:14.045Z,1.50
2018-01-19T23:10:41.555Z,1.50
2018-01-19T23:13:09.044Z,1.50
2018-01-19T23:15:36.525Z,1.50
2018-01-19T23:18:03.995Z,1.50
2018-01-19T23:20:31.511Z,1.60
2018-01-19T23:22:59.738Z,1.60
2018-01-19T23:25:27.231Z,1.60
2018-01-19T23:27:54.735Z,1.60
2018-01-19T23:30:22.966Z,1.60
2018-01-19T23:32:51.199Z,1.60
2018-01-19T23:35:18.703Z,1.60
2018-01-19T23:37:46.936Z,1.60
2018-01-19T23:40:14.430Z,1.60
2018-01-19T23:42:42.682Z,1.60
2018-01-19T23:45:10.156Z,1.60
2018-01-19T23:47:37.663Z,1.60
2018-01-19T23:50:05.128Z,1.60
2018-01-19T23:52:32.599Z,1.60
2018-01-19T23:55:00.114Z,1.60
2018-01-19T23:57:27.571Z,1.60
2018-01-19T23:59:55.043Z,1.60
